createdAt,value
2023-02-06T00:02:03.359Z,4.53
2023-02-06T00:06:55.075Z,5.20
2023-02-06T00:11:46.791Z,5.20
2023-02-06T00:16:38.485Z,5.60
2023-02-06T00:21:31.074Z,5.87
2023-02-06T00:26:24.438Z,5.90
2023-02-06T00:31:16.453Z,6.20
2023-02-06T00:36:09.037Z,7.13
2023-02-06T00:41:00.753Z,7.20
2023-02-06T00:45:56.773Z,7.87
2023-02-06T00:50:51.724Z,6.87
2023-02-06T00:55:43.499Z,7.53
2023-02-06T01:00:35.623Z,7.83
2023-02-06T01:05:28.871Z,8.10
2023-02-06T01:10:20.713Z,7.43
2023-02-06T01:15:13.361Z,7.60
2023-02-06T01:20:09.186Z,7.43
2023-02-06T01:25:01.050Z,6.77
2023-02-06T01:29:52.888Z,6.57
2023-02-06T01:34:44.724Z,6.17
2023-02-06T01:39:36.419Z,6.83
2023-02-06T01:44:28.148Z,7.07
2023-02-06T01:49:28.421Z,7.10
2023-02-06T01:54:20.559Z,7.60
2023-02-06T01:59:12.850Z,6.77
2023-02-06T02:04:14.797Z,6.77
2023-02-06T02:09:08.179Z,6.73
2023-02-06T02:14:03.189Z,6.60
2023-02-06T02:19:58.122Z,6.37
2023-02-06T02:25:29.978Z,6.67
2023-02-06T02:31:08.239Z,6.47
2023-02-06T02:36:34.151Z,7.30
2023-02-06T02:41:49.796Z,7.30
2023-02-06T02:46:46.259Z,7.70
2023-02-06T02:51:40.947Z,7.27
2023-02-06T02:56:34.706Z,6.90
2023-02-06T03:01:34.713Z,7.30
2023-02-06T03:06:57.327Z,7.40
2023-02-06T03:12:13.473Z,6.83
2023-02-06T03:17:13.893Z,6.27
2023-02-06T03:22:05.959Z,6.47
2023-02-06T03:27:04.855Z,6.80
2023-02-06T03:32:05.846Z,5.43
2023-02-06T03:36:57.919Z,6.30
2023-02-06T03:41:52.060Z,6.13
2023-02-06T03:46:46.600Z,6.10
2023-02-06T03:51:53.564Z,6.20
2023-02-06T03:56:55.209Z,6.07
2023-02-06T04:02:00.608Z,6.50
2023-02-06T04:06:52.349Z,6.20
2023-02-06T04:11:44.094Z,6.10
2023-02-06T04:16:35.861Z,6.03
2023-02-06T04:21:27.634Z,6.97
2023-02-06T04:26:19.293Z,5.93
2023-02-06T04:31:11.026Z,5.77
2023-02-06T04:36:02.842Z,6.50
2023-02-06T04:40:54.540Z,7.40
2023-02-06T04:45:47.090Z,6.47
2023-02-06T04:50:38.767Z,7.10
2023-02-06T04:55:30.425Z,7.10
2023-02-06T05:05:29.656Z,7.67
2023-02-06T05:10:25.102Z,7.70
2023-02-06T05:25:33.388Z,8.33
2023-02-06T05:30:27.058Z,8.63
2023-02-06T05:40:28.843Z,9.27
2023-02-06T05:50:28.439Z,9.70
2023-02-06T06:00:27.425Z,8.33
2023-02-06T06:05:22.923Z,9.50
2023-02-06T06:10:15.856Z,9.87
2023-02-06T06:15:12.848Z,8.53
2023-02-06T06:25:11.091Z,8.30
2023-02-06T06:45:21.895Z,8.70
2023-02-06T06:55:24.352Z,7.33
2023-02-06T07:00:17.493Z,7.50
2023-02-06T07:05:12.059Z,6.97
2023-02-06T07:20:17.502Z,6.57
2023-02-06T07:25:19.119Z,7.00
2023-02-06T07:30:20.762Z,6.93
2023-02-06T07:35:12.710Z,6.80
2023-02-06T07:40:06.691Z,7.13
2023-02-06T07:45:00.735Z,7.23
2023-02-06T07:49:53.409Z,6.77
2023-02-06T08:15:20.234Z,8.33
2023-02-06T08:50:48.354Z,6.97
2023-02-06T08:55:44.417Z,6.37
2023-02-06T09:21:22.635Z,6.17
2023-02-06T09:26:20.161Z,6.20
2023-02-06T10:48:17.192Z,5.60
2023-02-06T12:58:44.627Z,4.90
2023-02-06T13:14:36.174Z,4.73
2023-02-06T13:19:30.453Z,5.07
2023-02-06T13:34:46.703Z,4.43
2023-02-06T13:39:46.119Z,4.03
2023-02-06T14:13:03.484Z,5.33
2023-02-06T16:38:04.062Z,4.13
2023-02-06T17:09:13.135Z,5.27
2023-02-06T17:14:14.554Z,5.63
2023-02-06T17:34:30.425Z,4.90
2023-02-06T17:44:31.942Z,5.70
2023-02-06T18:09:48.808Z,6.57
2023-02-06T18:19:51.108Z,6.33
2023-02-06T18:24:48.213Z,6.73
2023-02-06T18:29:51.844Z,5.97
2023-02-06T18:34:44.556Z,6.50
2023-02-06T18:39:38.998Z,6.77
2023-02-06T18:44:32.222Z,6.93
2023-02-06T18:49:28.013Z,6.40
2023-02-06T18:59:27.667Z,7.20
2023-02-06T19:04:24.654Z,6.57
2023-02-06T19:09:23.172Z,6.00
2023-02-06T19:14:18.791Z,6.13
2023-02-06T19:19:13.544Z,5.57
2023-02-06T19:39:37.917Z,8.57
2023-02-06T19:49:39.022Z,8.67
2023-02-06T19:54:32.005Z,8.90
2023-02-06T19:59:28.781Z,9.07
2023-02-06T20:19:44.556Z,9.60
2023-02-06T20:29:43.656Z,9.83
2023-02-06T20:34:40.041Z,9.23
2023-02-06T20:39:32.582Z,8.37
2023-02-06T20:44:26.391Z,9.60
2023-02-06T20:54:32.810Z,7.33
2023-02-06T20:59:26.066Z,6.47
2023-02-06T21:04:20.362Z,6.47
2023-02-06T21:09:16.098Z,5.70
2023-02-06T21:24:27.967Z,5.20
2023-02-06T21:29:23.326Z,4.40
2023-02-06T21:34:23.550Z,4.93
2023-02-06T21:39:25.097Z,4.43
2023-02-06T21:49:23.731Z,5.23
2023-02-06T21:54:17.827Z,4.73
2023-02-06T22:09:24.043Z,4.87
2023-02-06T22:14:19.020Z,5.37
2023-02-06T22:19:11.417Z,5.47
2023-02-06T22:29:16.949Z,5.90
2023-02-06T22:39:22.067Z,6.27
2023-02-06T22:49:25.368Z,6.20
2023-02-06T22:54:17.759Z,5.50
2023-02-06T22:59:25.893Z,5.90
2023-02-06T23:04:26.952Z,7.17
2023-02-06T23:14:35.298Z,7.53
2023-02-06T23:19:31.572Z,8.73
2023-02-06T23:24:25.269Z,6.40
2023-02-06T23:29:23.248Z,7.50
2023-02-06T23:34:19.105Z,6.93
2023-02-06T23:39:12.083Z,7.10
2023-02-06T23:44:08.775Z,7.60
2023-02-06T23:49:02.768Z,6.87
2023-02-06T23:53:54.989Z,5.87
2023-02-06T23:58:48.498Z,6.60
